createdAt,value
2019-02-11T00:01:34.192Z,5.80
2019-02-11T00:04:02.778Z,5.70
2019-02-11T00:06:31.326Z,5.80
2019-02-11T00:08:59.868Z,5.70
2019-02-11T00:11:28.461Z,5.70
2019-02-11T00:13:57.011Z,5.70
2019-02-11T00:16:25.662Z,5.70
2019-02-11T00:18:54.209Z,5.70
2019-02-11T00:21:22.856Z,5.70
2019-02-11T00:23:51.410Z,5.70
2019-02-11T00:26:19.992Z,5.70
2019-02-11T00:28:48.614Z,5.70
2019-02-11T00:31:17.291Z,5.70
2019-02-11T00:33:45.921Z,5.70
2019-02-11T00:36:14.481Z,5.70
2019-02-11T00:38:43.062Z,5.70
2019-02-11T00:41:11.686Z,5.70
2019-02-11T00:43:40.332Z,5.70
2019-02-11T00:46:08.881Z,5.60
2019-02-11T00:48:37.525Z,5.60
2019-02-11T00:51:06.077Z,5.60
2019-02-11T00:53:34.660Z,5.60
2019-02-11T00:56:03.214Z,5.60
2019-02-11T00:58:31.857Z,5.60
2019-02-11T01:01:00.445Z,5.60
2019-02-11T01:03:28.997Z,5.50
2019-02-11T01:05:57.578Z,5.50
2019-02-11T01:08:26.224Z,5.50
2019-02-11T01:10:54.924Z,5.50
2019-02-11T01:13:27.878Z,5.50
2019-02-11T01:15:53.701Z,5.40
2019-02-11T01:18:22.253Z,5.40
2019-02-11T01:20:50.832Z,5.30
2019-02-11T01:23:19.448Z,5.30
2019-02-11T01:25:48.165Z,5.20
2019-02-11T01:28:16.786Z,5.10
2019-02-11T01:30:48.165Z,5.10
2019-02-11T01:33:16.740Z,5.00
2019-02-11T01:35:45.285Z,5.00
2019-02-11T01:38:13.868Z,4.90
2019-02-11T01:40:42.421Z,4.90
2019-02-11T01:43:11.037Z,4.80
2019-02-11T01:45:39.709Z,4.80
2019-02-11T01:48:08.252Z,4.70
2019-02-11T01:50:36.906Z,4.70
2019-02-11T01:53:05.521Z,4.60
2019-02-11T01:55:34.177Z,4.60
2019-02-11T01:58:02.799Z,4.60
2019-02-11T02:00:31.446Z,4.50
2019-02-11T02:03:00.043Z,4.50
2019-02-11T02:05:29.528Z,4.40
2019-02-11T02:07:58.112Z,4.40
2019-02-11T02:10:26.737Z,4.40
2019-02-11T02:12:55.316Z,4.30
2019-02-11T02:15:23.939Z,4.20
2019-02-11T02:17:52.543Z,4.20
2019-02-11T02:20:21.102Z,4.10
2019-02-11T02:22:49.768Z,4.10
2019-02-11T02:25:18.394Z,4.00
2019-02-11T02:27:46.958Z,4.00
2019-02-11T02:30:15.613Z,4.00
2019-02-11T02:32:44.174Z,3.90
2019-02-11T02:35:12.822Z,3.90
2019-02-11T02:37:41.530Z,3.80
2019-02-11T02:40:10.654Z,3.80
2019-02-11T02:42:39.279Z,3.80
2019-02-11T02:45:10.004Z,3.70
2019-02-11T02:47:38.565Z,3.70
2019-02-11T02:50:09.298Z,3.70
2019-02-11T02:52:37.924Z,3.60
2019-02-11T02:55:08.158Z,3.60
2019-02-11T02:57:36.805Z,3.60
2019-02-11T03:00:08.557Z,3.60
2019-02-11T03:02:37.144Z,3.60
2019-02-11T03:05:08.459Z,3.60
2019-02-11T03:07:37.177Z,3.50
2019-02-11T03:10:08.274Z,3.50
2019-02-11T03:12:36.885Z,3.50
2019-02-11T03:15:08.675Z,3.50
2019-02-11T03:17:37.330Z,3.40
2019-02-11T03:20:08.541Z,3.40
2019-02-11T03:22:37.291Z,3.40
2019-02-11T03:25:07.771Z,3.30
2019-02-11T03:27:36.427Z,3.30
2019-02-11T03:30:09.749Z,3.30
2019-02-11T03:32:38.308Z,3.30
2019-02-11T03:35:07.235Z,3.30
2019-02-11T03:37:35.867Z,3.30
2019-02-11T03:40:07.638Z,3.40
2019-02-11T03:42:36.266Z,3.30
2019-02-11T03:45:11.052Z,3.30
2019-02-11T03:47:39.751Z,3.20
2019-02-11T03:50:10.269Z,3.20
2019-02-11T03:52:38.971Z,3.20
2019-02-11T03:55:08.722Z,3.20
2019-02-11T03:57:38.220Z,3.20
2019-02-11T04:00:09.883Z,3.20
2019-02-11T04:02:38.505Z,3.10
2019-02-11T04:05:07.502Z,3.10
2019-02-11T04:07:36.242Z,3.20
2019-02-11T04:10:08.111Z,3.20
2019-02-11T04:12:36.707Z,3.10
2019-02-11T04:15:07.970Z,3.10
2019-02-11T04:17:36.591Z,3.10
2019-02-11T04:20:07.115Z,3.10
2019-02-11T04:22:35.774Z,3.10
2019-02-11T04:25:05.666Z,3.10
2019-02-11T04:27:34.232Z,3.10
2019-02-11T04:30:02.825Z,3.10
2019-02-11T04:32:31.483Z,3.10
2019-02-11T04:35:00.046Z,3.10
2019-02-11T04:37:28.706Z,3.10
2019-02-11T04:39:57.299Z,3.10
2019-02-11T04:42:25.852Z,3.10
2019-02-11T04:44:54.546Z,3.10
2019-02-11T04:47:23.179Z,3.10
2019-02-11T04:49:51.829Z,3.10
2019-02-11T04:52:20.417Z,3.10
2019-02-11T04:54:48.978Z,3.10
2019-02-11T04:57:17.570Z,3.00
2019-02-11T04:59:46.133Z,3.10
2019-02-11T05:02:14.715Z,3.00
2019-02-11T05:04:43.269Z,3.00
2019-02-11T05:07:11.857Z,3.10
2019-02-11T05:09:40.424Z,3.10
2019-02-11T05:12:09.019Z,3.10
2019-02-11T05:14:43.547Z,3.10
2019-02-11T05:17:07.874Z,3.10
2019-02-11T05:19:36.431Z,3.10
2019-02-11T05:22:05.021Z,3.10
2019-02-11T05:24:33.647Z,3.10
2019-02-11T05:27:02.280Z,3.10
2019-02-11T05:29:30.874Z,3.10
2019-02-11T05:31:59.507Z,3.10
2019-02-11T05:34:28.098Z,3.10
2019-02-11T05:36:56.730Z,3.10
2019-02-11T05:39:25.336Z,3.10
2019-02-11T05:41:53.961Z,3.10
2019-02-11T05:44:22.605Z,3.10
2019-02-11T05:46:51.201Z,3.10
2019-02-11T05:49:19.850Z,3.00
2019-02-11T05:51:48.410Z,3.00
2019-02-11T05:54:17.008Z,3.00
2019-02-11T05:56:45.573Z,2.90
2019-02-11T05:59:14.126Z,2.90
2019-02-11T06:01:42.858Z,2.90
2019-02-11T06:04:11.491Z,2.90
2019-02-11T06:06:40.088Z,2.80
2019-02-11T06:09:08.641Z,2.80
2019-02-11T06:11:37.230Z,2.80
2019-02-11T06:14:05.990Z,2.80
2019-02-11T06:16:34.551Z,2.80
2019-02-11T06:19:03.147Z,2.80
2019-02-11T06:21:31.709Z,2.80
2019-02-11T06:24:00.315Z,2.90
2019-02-11T06:26:28.904Z,2.90
2019-02-11T06:28:57.463Z,2.90
2019-02-11T06:31:26.047Z,2.90
2019-02-11T06:33:54.670Z,3.00
2019-02-11T06:36:23.300Z,3.00
2019-02-11T06:38:51.956Z,3.10
2019-02-11T06:41:22.148Z,3.10
2019-02-11T06:43:50.685Z,3.10
2019-02-11T06:46:19.251Z,3.20
2019-02-11T06:48:47.920Z,3.20
2019-02-11T06:51:16.475Z,3.20
2019-02-11T06:53:45.069Z,3.20
2019-02-11T06:56:13.770Z,3.30
2019-02-11T06:58:42.350Z,3.30
2019-02-11T07:01:11.054Z,3.40
2019-02-11T07:03:39.652Z,3.30
2019-02-11T07:06:08.291Z,3.40
2019-02-11T07:08:36.862Z,3.40
2019-02-11T07:11:05.592Z,3.50
2019-02-11T07:13:34.220Z,3.50
2019-02-11T07:16:03.328Z,3.50
2019-02-11T07:18:32.852Z,3.50
2019-02-11T07:21:01.544Z,3.60
2019-02-11T07:23:30.253Z,3.50
2019-02-11T07:25:58.995Z,3.60
2019-02-11T07:28:27.700Z,3.60
2019-02-11T07:30:56.364Z,3.60
2019-02-11T07:33:24.941Z,3.60
2019-02-11T07:35:53.501Z,3.70
2019-02-11T07:38:22.082Z,3.70
2019-02-11T07:40:50.646Z,3.70
2019-02-11T07:43:23.298Z,3.80
2019-02-11T07:45:59.439Z,3.80
2019-02-11T07:48:29.611Z,3.80
2019-02-11T07:50:58.262Z,3.80
2019-02-11T07:53:26.859Z,3.80
2019-02-11T07:55:55.409Z,3.80
2019-02-11T07:58:24.111Z,3.90
2019-02-11T08:00:52.706Z,3.90
2019-02-11T08:03:21.330Z,4.00
2019-02-11T08:05:49.929Z,4.00
2019-02-11T08:08:18.498Z,4.00
2019-02-11T08:10:47.090Z,4.10
2019-02-11T08:13:15.642Z,4.00
2019-02-11T08:15:44.281Z,4.10
2019-02-11T08:18:12.943Z,4.10
2019-02-11T08:20:41.500Z,4.10
2019-02-11T08:23:13.316Z,4.20
2019-02-11T08:25:40.311Z,4.30
2019-02-11T08:28:09.047Z,4.30
2019-02-11T08:30:37.593Z,4.40
2019-02-11T08:33:06.182Z,4.50
2019-02-11T08:35:34.883Z,4.60
2019-02-11T08:38:03.505Z,4.60
2019-02-11T08:40:32.224Z,4.50
2019-02-11T08:43:00.782Z,4.40
2019-02-11T08:45:29.466Z,4.30
2019-02-11T08:47:58.086Z,4.30
2019-02-11T08:50:26.686Z,4.20
2019-02-11T08:52:55.255Z,4.10
2019-02-11T08:55:23.851Z,4.10
2019-02-11T08:57:52.476Z,4.10
2019-02-11T09:00:21.109Z,4.00
2019-02-11T09:02:49.762Z,4.00
2019-02-11T09:05:18.385Z,4.00
2019-02-11T09:07:47.064Z,3.90
2019-02-11T09:10:15.859Z,3.90
2019-02-11T09:12:44.445Z,3.90
2019-02-11T09:15:13.455Z,3.90
2019-02-11T09:17:42.088Z,4.00
2019-02-11T09:20:11.586Z,4.00
2019-02-11T09:22:40.214Z,4.10
2019-02-11T09:25:10.844Z,4.20
2019-02-11T09:27:39.543Z,4.30
2019-02-11T09:30:17.943Z,4.40
2019-02-11T09:32:46.600Z,4.40
2019-02-11T09:35:15.262Z,4.50
2019-02-11T09:37:43.995Z,4.50
2019-02-11T09:40:15.194Z,4.50
2019-02-11T09:42:43.924Z,4.50
2019-02-11T09:45:15.555Z,4.70
2019-02-11T09:47:44.139Z,4.70
2019-02-11T09:50:15.890Z,4.90
2019-02-11T09:52:44.542Z,5.10
2019-02-11T09:55:18.731Z,5.40
2019-02-11T09:57:47.384Z,5.60
2019-02-11T10:00:16.230Z,5.70
2019-02-11T10:02:44.960Z,5.60
2019-02-11T10:05:13.775Z,5.50
2019-02-11T10:07:42.655Z,5.60
2019-02-11T10:10:11.406Z,6.30
2019-02-11T10:12:40.048Z,6.70
2019-02-11T10:15:11.777Z,6.90
2019-02-11T10:17:40.475Z,6.70
2019-02-11T10:20:11.783Z,6.50
2019-02-11T10:22:40.480Z,6.40
2019-02-11T10:25:12.151Z,6.20
2019-02-11T10:27:40.786Z,6.00
2019-02-11T10:30:12.325Z,6.40
2019-02-11T10:32:41.036Z,6.90
2019-02-11T10:35:11.558Z,7.50
2019-02-11T10:37:40.262Z,7.50
2019-02-11T10:40:11.395Z,7.30
2019-02-11T10:42:39.953Z,6.90
2019-02-11T10:45:11.453Z,6.60
2019-02-11T10:47:41.387Z,6.30
2019-02-11T10:50:12.858Z,6.20
2019-02-11T10:52:41.594Z,6.10
2019-02-11T10:55:15.775Z,6.10
2019-02-11T10:57:44.602Z,6.20
2019-02-11T11:00:16.267Z,6.30
2019-02-11T11:02:44.856Z,6.40
2019-02-11T11:05:14.629Z,6.90
2019-02-11T11:07:43.465Z,7.30
2019-02-11T11:10:15.567Z,7.50
2019-02-11T11:12:44.269Z,8.10
2019-02-11T11:15:12.998Z,8.40
2019-02-11T11:17:43.627Z,8.80
2019-02-11T11:20:15.299Z,8.60
2019-02-11T11:22:44.003Z,8.30
2019-02-11T11:25:13.704Z,7.80
2019-02-11T11:27:42.334Z,7.40
2019-02-11T11:30:18.614Z,7.30
2019-02-11T11:32:47.519Z,7.20
2019-02-11T11:35:17.526Z,7.30
2019-02-11T11:37:46.227Z,7.40
2019-02-11T11:40:19.251Z,7.60
2019-02-11T11:42:47.951Z,7.60
2019-02-11T11:45:18.650Z,7.90
2019-02-11T11:47:47.413Z,8.60
2019-02-11T11:50:17.247Z,9.40
2019-02-11T11:52:45.918Z,10.10
2019-02-11T11:55:17.400Z,10.80
2019-02-11T11:57:46.054Z,11.10
2019-02-11T12:00:23.312Z,11.20
2019-02-11T12:03:01.641Z,11.60
2019-02-11T12:05:22.463Z,12.00
2019-02-11T12:07:51.039Z,12.70
2019-02-11T12:10:19.907Z,13.20
2019-02-11T12:12:48.642Z,13.70
2019-02-11T12:15:20.130Z,14.30
2019-02-11T12:17:48.929Z,14.40
2019-02-11T12:20:17.580Z,14.80
2019-02-11T12:22:46.251Z,15.10
2019-02-11T12:25:16.992Z,14.10
2019-02-11T12:27:45.702Z,12.70
2019-02-11T12:30:16.792Z,12.70
2019-02-11T12:32:45.397Z,12.80
2019-02-11T12:35:14.637Z,12.80
2019-02-11T12:37:43.457Z,13.10
2019-02-11T12:40:13.585Z,13.00
2019-02-11T12:42:42.269Z,12.50
2019-02-11T12:45:16.286Z,12.00
2019-02-11T12:47:44.956Z,11.60
2019-02-11T12:50:15.802Z,11.00
2019-02-11T12:52:44.406Z,10.60
2019-02-11T12:55:14.754Z,10.40
2019-02-11T12:57:43.488Z,10.40
2019-02-11T13:00:20.871Z,10.00
2019-02-11T13:02:49.617Z,9.30
2019-02-11T13:05:22.159Z,8.80
2019-02-11T13:07:48.727Z,8.50
2019-02-11T13:10:21.859Z,8.10
2019-02-11T13:12:50.587Z,8.00
2019-02-11T13:15:52.771Z,7.90
2019-02-11T13:17:50.410Z,7.90
2019-02-11T13:20:19.406Z,8.20
2019-02-11T13:22:48.413Z,8.40
2019-02-11T13:25:18.246Z,8.50
2019-02-11T13:27:47.569Z,8.60
2019-02-11T13:30:21.512Z,8.60
2019-02-11T13:32:50.497Z,8.40
2019-02-11T13:35:19.437Z,8.20
2019-02-11T13:37:48.112Z,7.90
2019-02-11T13:40:16.883Z,7.70
2019-02-11T13:42:45.644Z,7.60
2019-02-11T13:45:21.151Z,7.50
2019-02-11T13:47:56.252Z,7.40
2019-02-11T13:50:25.573Z,7.30
2019-02-11T13:52:54.694Z,7.20
2019-02-11T13:55:23.899Z,7.10
2019-02-11T13:57:53.207Z,7.00
2019-02-11T14:00:27.294Z,6.90
2019-02-11T14:02:58.497Z,6.80
2019-02-11T14:05:28.597Z,6.70
2019-02-11T14:07:59.702Z,6.70
2019-02-11T14:10:28.705Z,6.70
2019-02-11T14:12:57.544Z,6.60
2019-02-11T14:15:26.294Z,6.60
2019-02-11T14:18:10.534Z,6.50
2019-02-11T14:20:26.941Z,6.60
2019-02-11T14:22:55.595Z,6.70
2019-02-11T14:25:40.712Z,6.90
2019-02-11T14:27:54.612Z,7.10
2019-02-11T14:30:23.305Z,7.10
2019-02-11T14:32:52.134Z,7.00
2019-02-11T14:35:21.271Z,6.90
2019-02-11T14:37:49.947Z,6.80
2019-02-11T14:40:18.913Z,6.70
2019-02-11T14:42:47.643Z,6.70
2019-02-11T14:45:20.483Z,6.60
2019-02-11T14:47:49.124Z,6.60
2019-02-11T14:50:17.854Z,6.60
2019-02-11T14:52:46.474Z,6.50
2019-02-11T14:55:15.211Z,6.60
2019-02-11T14:57:43.911Z,6.60
2019-02-11T15:00:20.925Z,6.60
2019-02-11T15:02:49.646Z,6.60
2019-02-11T15:05:19.371Z,6.50
2019-02-11T15:07:48.641Z,6.40
2019-02-11T15:10:19.559Z,6.40
2019-02-11T15:12:48.008Z,6.30
2019-02-11T15:15:16.672Z,6.40
2019-02-11T15:17:46.577Z,6.30
2019-02-11T15:20:18.303Z,6.30
2019-02-11T15:22:46.922Z,6.20
2019-02-11T15:25:18.291Z,6.20
2019-02-11T15:27:47.944Z,6.20
2019-02-11T15:30:20.407Z,6.10
2019-02-11T15:32:49.047Z,6.10
2019-02-11T15:35:17.759Z,6.10
2019-02-11T15:37:46.487Z,6.00
2019-02-11T15:40:22.875Z,6.00
2019-02-11T15:42:51.548Z,6.00
2019-02-11T15:45:20.214Z,6.00
2019-02-11T15:47:48.885Z,6.00
2019-02-11T15:50:18.390Z,6.00
2019-02-11T15:52:47.111Z,6.00
2019-02-11T15:55:17.660Z,6.00
2019-02-11T15:57:46.359Z,6.00
2019-02-11T16:00:16.890Z,5.90
2019-02-11T16:02:45.625Z,6.00
2019-02-11T16:05:16.636Z,5.90
2019-02-11T16:07:44.770Z,5.90
2019-02-11T16:10:16.243Z,5.90
2019-02-11T16:12:45.061Z,5.90
2019-02-11T16:15:13.901Z,5.90
2019-02-11T16:17:43.557Z,5.90
2019-02-11T16:20:14.510Z,5.90
2019-02-11T16:22:43.642Z,5.90
2019-02-11T16:25:16.980Z,5.90
2019-02-11T16:27:45.538Z,5.90
2019-02-11T16:30:20.750Z,5.90
2019-02-11T16:32:49.460Z,5.80
2019-02-11T16:35:19.125Z,5.80
2019-02-11T16:37:47.771Z,5.80
2019-02-11T16:40:28.407Z,5.80
2019-02-11T16:42:56.976Z,5.80
2019-02-11T16:45:25.708Z,5.80
2019-02-11T16:47:54.691Z,5.80
2019-02-11T16:50:23.564Z,5.80
2019-02-11T16:52:52.197Z,5.80
2019-02-11T16:55:20.865Z,5.70
2019-02-11T16:57:49.610Z,5.70
2019-02-11T17:00:21.563Z,5.60
2019-02-11T17:02:50.218Z,5.50
2019-02-11T17:05:18.981Z,5.50
2019-02-11T17:07:47.698Z,5.50
2019-02-11T17:10:16.667Z,5.50
2019-02-11T17:12:45.578Z,5.40
2019-02-11T17:15:18.650Z,5.30
2019-02-11T17:17:47.374Z,5.20
2019-02-11T17:20:16.871Z,5.10
2019-02-11T17:22:45.733Z,5.00
2019-02-11T17:25:16.549Z,5.00
2019-02-11T17:27:45.383Z,4.90
2019-02-11T17:30:25.633Z,4.70
2019-02-11T17:32:54.328Z,4.60
2019-02-11T17:35:23.059Z,4.40
2019-02-11T17:37:51.761Z,4.30
2019-02-11T17:40:21.291Z,4.10
2019-02-11T17:42:49.911Z,4.00
2019-02-11T17:48:07.208Z,3.80
2019-02-11T17:50:36.695Z,3.80
2019-02-11T17:53:14.627Z,3.80
2019-02-11T17:55:43.349Z,3.90
2019-02-11T17:58:12.239Z,4.00
2019-02-11T18:00:45.466Z,4.00
2019-02-11T18:03:14.131Z,4.10
2019-02-11T18:05:42.769Z,4.10
2019-02-11T18:08:11.510Z,4.10
2019-02-11T18:10:40.235Z,4.10
2019-02-11T18:13:08.944Z,4.10
2019-02-11T18:15:37.623Z,4.10
2019-02-11T18:18:06.312Z,4.20
2019-02-11T18:20:35.038Z,4.20
2019-02-11T18:23:03.696Z,4.20
2019-02-11T18:25:32.366Z,4.20
2019-02-11T18:28:01.061Z,4.30
2019-02-11T18:30:29.809Z,4.30
2019-02-11T18:32:58.522Z,4.40
2019-02-11T18:35:27.208Z,4.40
2019-02-11T18:37:55.928Z,4.40
2019-02-11T18:40:25.953Z,4.40
2019-02-11T18:42:54.696Z,4.40
2019-02-11T18:45:24.345Z,4.30
2019-02-11T18:47:53.006Z,4.30
2019-02-11T18:50:21.717Z,4.30
2019-02-11T18:52:50.473Z,4.20
2019-02-11T18:55:20.607Z,4.20
2019-02-11T18:57:49.325Z,4.10
2019-02-11T19:00:19.677Z,4.20
2019-02-11T19:02:49.129Z,4.10
2019-02-11T19:05:19.377Z,4.10
2019-02-11T19:07:48.059Z,4.10
2019-02-11T19:10:18.221Z,4.10
2019-02-11T19:12:48.081Z,4.00
2019-02-11T19:15:18.676Z,4.00
2019-02-11T19:17:47.379Z,4.00
2019-02-11T19:20:17.399Z,4.00
2019-02-11T19:22:46.163Z,3.90
2019-02-11T19:25:16.422Z,3.90
2019-02-11T19:27:46.450Z,3.80
2019-02-11T19:30:18.137Z,3.70
2019-02-11T19:32:47.021Z,3.70
2019-02-11T19:35:17.986Z,3.60
2019-02-11T19:37:51.137Z,3.60
2019-02-11T19:40:23.097Z,3.50
2019-02-11T19:42:53.272Z,3.50
2019-02-11T19:45:23.436Z,3.40
2019-02-11T19:47:53.109Z,3.40
2019-02-11T19:50:22.452Z,3.40
2019-02-11T19:52:51.503Z,3.40
2019-02-11T19:55:20.210Z,3.30
2019-02-11T19:57:48.850Z,3.20
2019-02-11T20:00:23.840Z,3.20
2019-02-11T20:02:54.482Z,3.20
2019-02-11T20:05:24.924Z,3.20
2019-02-11T20:07:53.664Z,3.20
2019-02-11T20:10:24.246Z,3.20
2019-02-11T20:12:53.780Z,3.20
2019-02-11T20:15:30.744Z,3.10
2019-02-11T20:18:00.316Z,3.10
2019-02-11T20:20:29.922Z,3.00
2019-02-11T20:22:59.160Z,3.00
2019-02-11T20:25:28.132Z,2.90
2019-02-11T20:27:57.286Z,2.90
2019-02-11T20:30:30.366Z,2.90
2019-02-11T20:32:59.955Z,2.80
2019-02-11T20:35:28.855Z,2.70
2019-02-11T20:37:58.962Z,2.70
2019-02-11T20:40:29.460Z,2.70
2019-02-11T20:42:58.592Z,2.60
2019-02-11T20:45:28.818Z,2.70
2019-02-11T20:47:57.521Z,2.60
2019-02-11T20:50:26.292Z,2.60
2019-02-11T20:52:55.383Z,2.60
2019-02-11T20:55:24.255Z,2.50
2019-02-11T20:57:56.939Z,2.50
2019-02-11T21:00:26.358Z,2.50
2019-02-11T21:02:55.327Z,2.40
2019-02-11T21:05:24.659Z,2.40
2019-02-11T21:07:53.390Z,2.40
2019-02-11T21:10:23.726Z,2.30
2019-02-11T21:12:52.314Z,2.20
2019-02-11T21:15:21.125Z,2.20
2019-02-11T21:17:49.770Z,2.20
2019-02-11T21:20:24.874Z,2.10
2019-02-11T21:22:53.654Z,2.10
2019-02-11T21:25:22.315Z,2.10
2019-02-11T21:27:51.041Z,2.10
2019-02-11T21:30:19.851Z,2.10
2019-02-11T21:32:48.506Z,2.10
2019-02-11T21:35:17.600Z,2.10
2019-02-11T21:37:46.359Z,2.10
2019-02-11T21:40:15.090Z,2.10
2019-02-11T21:42:44.737Z,2.10
2019-02-11T21:45:15.280Z,2.00
2019-02-11T21:47:44.162Z,2.00
2019-02-11T21:50:26.069Z,2.00
2019-02-11T21:52:48.946Z,1.90
2019-02-11T21:55:22.236Z,1.90
2019-02-11T21:57:51.698Z,1.90
2019-02-11T22:00:21.477Z,1.80
2019-02-11T22:02:50.810Z,1.80
2019-02-11T22:05:20.054Z,1.80
2019-02-11T22:07:48.850Z,1.80
2019-02-11T22:10:22.905Z,1.80
2019-02-11T22:12:52.267Z,1.80
2019-02-11T22:15:20.965Z,1.80
2019-02-11T22:17:49.626Z,1.80
2019-02-11T22:20:21.022Z,1.80
2019-02-11T22:22:50.652Z,1.70
2019-02-11T22:25:19.382Z,1.60
2019-02-11T22:27:48.140Z,1.60
2019-02-11T22:30:24.593Z,1.50
2019-02-11T22:32:53.327Z,1.50
2019-02-11T22:35:22.633Z,1.50
2019-02-11T22:37:51.776Z,1.50
2019-02-11T22:40:20.489Z,1.50
2019-02-11T22:42:49.226Z,1.50
2019-02-11T22:45:20.283Z,1.60
2019-02-11T22:47:50.253Z,1.60
2019-02-11T22:50:19.289Z,1.80
2019-02-11T22:52:48.100Z,1.90
2019-02-11T22:55:16.763Z,1.90
2019-02-11T22:57:45.499Z,2.00
2019-02-11T23:00:19.880Z,2.00
2019-02-11T23:02:48.634Z,2.10
2019-02-11T23:05:17.348Z,2.10
2019-02-11T23:07:46.059Z,2.20
2019-02-11T23:10:14.883Z,2.20
2019-02-11T23:12:43.600Z,2.30
2019-02-11T23:15:13.825Z,2.30
2019-02-11T23:17:42.523Z,2.30
2019-02-11T23:20:11.250Z,2.30
2019-02-11T23:22:39.959Z,2.30
2019-02-11T23:25:08.696Z,2.30
2019-02-11T23:27:37.320Z,2.30
2019-02-11T23:30:13.533Z,2.30
2019-02-11T23:32:39.846Z,2.40
2019-02-11T23:35:08.653Z,2.40
2019-02-11T23:37:37.392Z,2.50
2019-02-11T23:40:08.603Z,2.50
2019-02-11T23:42:37.354Z,2.50
2019-02-11T23:45:10.518Z,2.60
2019-02-11T23:47:39.227Z,2.60
2019-02-11T23:50:10.650Z,2.60
2019-02-11T23:52:40.055Z,2.60
2019-02-11T23:55:10.203Z,2.70
2019-02-11T23:57:38.875Z,2.70
